sensor_id;sensor_type;location;lat;lon;timestamp;P1;durP1;ratioP1;P2;durP2;ratioP2
75593;SDS011;64176;49.156;7.810;2022-11-15T00:00:15;27.02;;;17.38;;
75593;SDS011;64176;49.156;7.810;2022-11-15T00:03:20;19.80;;;13.10;;
75593;SDS011;64176;49.156;7.810;2022-11-15T00:06:24;21.85;;;13.45;;
75593;SDS011;64176;49.156;7.810;2022-11-15T00:09:27;14.80;;;10.80;;
75593;SDS011;64176;49.156;7.810;2022-11-15T00:12:30;16.83;;;13.25;;
75593;SDS011;64176;49.156;7.810;2022-11-15T00:15:39;20.35;;;11.57;;
75593;SDS011;64176;49.156;7.810;2022-11-15T00:18:43;20.60;;;11.35;;
75593;SDS011;64176;49.156;7.810;2022-11-15T00:21:46;21.05;;;14.93;;
75593;SDS011;64176;49.156;7.810;2022-11-15T00:24:49;20.60;;;15.35;;
75593;SDS011;64176;49.156;7.810;2022-11-15T00:27:56;13.65;;;9.32;;
75593;SDS011;64176;49.156;7.810;2022-11-15T00:31:03;13.07;;;10.07;;
75593;SDS011;64176;49.156;7.810;2022-11-15T00:34:09;13.68;;;7.43;;
75593;SDS011;64176;49.156;7.810;2022-11-15T00:37:13;20.90;;;14.55;;
75593;SDS011;64176;49.156;7.810;2022-11-15T00:40:16;29.13;;;18.80;;
75593;SDS011;64176;49.156;7.810;2022-11-15T00:43:21;32.65;;;19.65;;
75593;SDS011;64176;49.156;7.810;2022-11-15T00:46:24;19.23;;;13.38;;
75593;SDS011;64176;49.156;7.810;2022-11-15T00:49:27;19.45;;;13.05;;
75593;SDS011;64176;49.156;7.810;2022-11-15T00:52:32;19.10;;;14.23;;
75593;SDS011;64176;49.156;7.810;2022-11-15T00:55:37;18.45;;;13.02;;
75593;SDS011;64176;49.156;7.810;2022-11-15T00:58:43;15.27;;;10.57;;
75593;SDS011;64176;49.156;7.810;2022-11-15T01:01:45;17.55;;;12.63;;
75593;SDS011;64176;49.156;7.810;2022-11-15T01:04:53;19.30;;;12.43;;
75593;SDS011;64176;49.156;7.810;2022-11-15T01:07:56;19.33;;;11.15;;
75593;SDS011;64176;49.156;7.810;2022-11-15T01:11:03;17.67;;;12.73;;
75593;SDS011;64176;49.156;7.810;2022-11-15T01:14:07;17.27;;;13.10;;
75593;SDS011;64176;49.156;7.810;2022-11-15T01:17:09;20.35;;;14.50;;
75593;SDS011;64176;49.156;7.810;2022-11-15T01:20:12;21.48;;;15.13;;
75593;SDS011;64176;49.156;7.810;2022-11-15T01:23:15;23.67;;;15.07;;
75593;SDS011;64176;49.156;7.810;2022-11-15T01:26:18;18.80;;;13.95;;
75593;SDS011;64176;49.156;7.810;2022-11-15T01:29:21;16.38;;;13.02;;
75593;SDS011;64176;49.156;7.810;2022-11-15T01:32:23;18.52;;;12.98;;
75593;SDS011;64176;49.156;7.810;2022-11-15T01:35:26;24.35;;;14.85;;
75593;SDS011;64176;49.156;7.810;2022-11-15T01:38:29;23.60;;;14.32;;
75593;SDS011;64176;49.156;7.810;2022-11-15T01:41:32;19.27;;;15.45;;
75593;SDS011;64176;49.156;7.810;2022-11-15T01:47:43;17.58;;;12.40;;
75593;SDS011;64176;49.156;7.810;2022-11-15T01:50:56;21.08;;;12.57;;
75593;SDS011;64176;49.156;7.810;2022-11-15T01:54:02;17.40;;;12.52;;
75593;SDS011;64176;49.156;7.810;2022-11-15T01:57:09;17.02;;;11.82;;
75593;SDS011;64176;49.156;7.810;2022-11-15T02:00:14;17.10;;;11.65;;
75593;SDS011;64176;49.156;7.810;2022-11-15T02:03:18;16.45;;;12.20;;
75593;SDS011;64176;49.156;7.810;2022-11-15T02:06:22;15.73;;;12.15;;
75593;SDS011;64176;49.156;7.810;2022-11-15T02:09:25;18.65;;;11.98;;
75593;SDS011;64176;49.156;7.810;2022-11-15T02:12:28;19.25;;;12.88;;
75593;SDS011;64176;49.156;7.810;2022-11-15T02:15:35;15.90;;;11.48;;
75593;SDS011;64176;49.156;7.810;2022-11-15T02:18:49;17.77;;;12.70;;
75593;SDS011;64176;49.156;7.810;2022-11-15T02:31:51;16.13;;;11.95;;
75593;SDS011;64176;49.156;7.810;2022-11-15T02:38:41;17.42;;;12.90;;
75593;SDS011;64176;49.156;7.810;2022-11-15T02:45:33;16.48;;;11.10;;
75593;SDS011;64176;49.156;7.810;2022-11-15T02:48:40;15.82;;;10.93;;
75593;SDS011;64176;49.156;7.810;2022-11-15T02:51:48;14.27;;;10.15;;
75593;SDS011;64176;49.156;7.810;2022-11-15T02:54:58;16.98;;;12.52;;
75593;SDS011;64176;49.156;7.810;2022-11-15T02:58:12;18.98;;;11.45;;
75593;SDS011;64176;49.156;7.810;2022-11-15T03:01:37;14.82;;;9.82;;
75593;SDS011;64176;49.156;7.810;2022-11-15T03:11:48;15.50;;;10.55;;
75593;SDS011;64176;49.156;7.810;2022-11-15T03:18:21;14.20;;;10.20;;
75593;SDS011;64176;49.156;7.810;2022-11-15T03:21:33;13.63;;;9.88;;
75593;SDS011;64176;49.156;7.810;2022-11-15T03:24:38;15.35;;;11.45;;
75593;SDS011;64176;49.156;7.810;2022-11-15T03:27:43;12.48;;;9.43;;
75593;SDS011;64176;49.156;7.810;2022-11-15T03:30:50;16.55;;;9.55;;
75593;SDS011;64176;49.156;7.810;2022-11-15T03:33:56;14.43;;;9.65;;
75593;SDS011;64176;49.156;7.810;2022-11-15T03:37:01;12.30;;;9.15;;
75593;SDS011;64176;49.156;7.810;2022-11-15T03:40:04;15.35;;;9.13;;
75593;SDS011;64176;49.156;7.810;2022-11-15T03:43:15;17.60;;;10.20;;
75593;SDS011;64176;49.156;7.810;2022-11-15T03:46:33;15.57;;;9.73;;
75593;SDS011;64176;49.156;7.810;2022-11-15T03:49:42;11.88;;;8.80;;
75593;SDS011;64176;49.156;7.810;2022-11-15T03:52:49;13.15;;;9.27;;
75593;SDS011;64176;49.156;7.810;2022-11-15T03:55:52;14.27;;;9.20;;
75593;SDS011;64176;49.156;7.810;2022-11-15T03:58:55;12.20;;;9.13;;
75593;SDS011;64176;49.156;7.810;2022-11-15T04:01:57;18.70;;;12.32;;
75593;SDS011;64176;49.156;7.810;2022-11-15T04:05:00;18.23;;;12.13;;
75593;SDS011;64176;49.156;7.810;2022-11-15T04:08:03;21.80;;;14.20;;
75593;SDS011;64176;49.156;7.810;2022-11-15T04:11:08;20.13;;;13.98;;
75593;SDS011;64176;49.156;7.810;2022-11-15T04:14:11;23.10;;;15.40;;
75593;SDS011;64176;49.156;7.810;2022-11-15T04:17:14;21.35;;;14.40;;
75593;SDS011;64176;49.156;7.810;2022-11-15T04:20:24;20.55;;;13.00;;
75593;SDS011;64176;49.156;7.810;2022-11-15T04:23:50;15.52;;;10.68;;
75593;SDS011;64176;49.156;7.810;2022-11-15T04:26:55;14.75;;;9.45;;
75593;SDS011;64176;49.156;7.810;2022-11-15T04:30:01;16.73;;;12.55;;
75593;SDS011;64176;49.156;7.810;2022-11-15T04:33:06;17.00;;;11.20;;
75593;SDS011;64176;49.156;7.810;2022-11-15T04:36:09;14.32;;;10.05;;
75593;SDS011;64176;49.156;7.810;2022-11-15T04:39:31;14.32;;;10.77;;
75593;SDS011;64176;49.156;7.810;2022-11-15T04:42:33;18.52;;;10.95;;
75593;SDS011;64176;49.156;7.810;2022-11-15T04:45:36;15.15;;;10.15;;
75593;SDS011;64176;49.156;7.810;2022-11-15T04:48:39;17.00;;;10.82;;
75593;SDS011;64176;49.156;7.810;2022-11-15T04:51:46;21.58;;;11.75;;
75593;SDS011;64176;49.156;7.810;2022-11-15T04:54:49;12.48;;;8.40;;
75593;SDS011;64176;49.156;7.810;2022-11-15T04:57:58;14.05;;;7.70;;
75593;SDS011;64176;49.156;7.810;2022-11-15T05:04:11;11.80;;;7.65;;
75593;SDS011;64176;49.156;7.810;2022-11-15T05:07:23;10.48;;;7.72;;
75593;SDS011;64176;49.156;7.810;2022-11-15T05:10:30;11.20;;;7.75;;
75593;SDS011;64176;49.156;7.810;2022-11-15T05:13:33;15.10;;;8.77;;
75593;SDS011;64176;49.156;7.810;2022-11-15T05:16:36;14.45;;;9.02;;
75593;SDS011;64176;49.156;7.810;2022-11-15T05:19:40;15.02;;;10.25;;
75593;SDS011;64176;49.156;7.810;2022-11-15T05:22:45;12.95;;;8.70;;
75593;SDS011;64176;49.156;7.810;2022-11-15T05:25:48;13.13;;;9.98;;
75593;SDS011;64176;49.156;7.810;2022-11-15T05:28:54;11.13;;;7.35;;
75593;SDS011;64176;49.156;7.810;2022-11-15T05:31:58;15.23;;;8.07;;
75593;SDS011;64176;49.156;7.810;2022-11-15T05:35:02;11.07;;;7.93;;
75593;SDS011;64176;49.156;7.810;2022-11-15T05:38:07;17.13;;;10.48;;
75593;SDS011;64176;49.156;7.810;2022-11-15T05:41:11;15.10;;;11.00;;
75593;SDS011;64176;49.156;7.810;2022-11-15T05:44:15;15.15;;;12.23;;
75593;SDS011;64176;49.156;7.810;2022-11-15T05:47:24;15.40;;;12.25;;
75593;SDS011;64176;49.156;7.810;2022-11-15T05:50:36;12.98;;;10.00;;
75593;SDS011;64176;49.156;7.810;2022-11-15T05:53:40;18.80;;;9.93;;
75593;SDS011;64176;49.156;7.810;2022-11-15T05:56:44;13.35;;;9.98;;
75593;SDS011;64176;49.156;7.810;2022-11-15T05:59:47;13.75;;;9.93;;
75593;SDS011;64176;49.156;7.810;2022-11-15T06:02:49;17.30;;;10.40;;
75593;SDS011;64176;49.156;7.810;2022-11-15T06:05:52;13.40;;;8.82;;
75593;SDS011;64176;49.156;7.810;2022-11-15T06:08:55;17.08;;;13.02;;
75593;SDS011;64176;49.156;7.810;2022-11-15T06:12:01;15.52;;;11.43;;
75593;SDS011;64176;49.156;7.810;2022-11-15T06:15:03;17.90;;;10.90;;
75593;SDS011;64176;49.156;7.810;2022-11-15T06:18:07;21.75;;;12.25;;
75593;SDS011;64176;49.156;7.810;2022-11-15T06:21:10;17.98;;;12.18;;
75593;SDS011;64176;49.156;7.810;2022-11-15T06:24:13;18.10;;;10.73;;
75593;SDS011;64176;49.156;7.810;2022-11-15T06:27:15;19.95;;;12.05;;
75593;SDS011;64176;49.156;7.810;2022-11-15T06:30:21;20.88;;;12.35;;
75593;SDS011;64176;49.156;7.810;2022-11-15T06:33:25;37.00;;;23.48;;
75593;SDS011;64176;49.156;7.810;2022-11-15T06:36:28;27.55;;;17.63;;
75593;SDS011;64176;49.156;7.810;2022-11-15T06:39:31;20.98;;;14.75;;
75593;SDS011;64176;49.156;7.810;2022-11-15T06:42:33;21.50;;;14.63;;
75593;SDS011;64176;49.156;7.810;2022-11-15T06:45:36;25.05;;;16.88;;
75593;SDS011;64176;49.156;7.810;2022-11-15T06:48:39;23.02;;;12.93;;
75593;SDS011;64176;49.156;7.810;2022-11-15T06:51:42;16.08;;;12.93;;
75593;SDS011;64176;49.156;7.810;2022-11-15T06:54:45;21.52;;;12.70;;
75593;SDS011;64176;49.156;7.810;2022-11-15T06:57:51;23.35;;;14.20;;
75593;SDS011;64176;49.156;7.810;2022-11-15T07:00:57;22.45;;;14.20;;
75593;SDS011;64176;49.156;7.810;2022-11-15T07:04:04;47.72;;;17.25;;
75593;SDS011;64176;49.156;7.810;2022-11-15T07:07:12;40.15;;;18.13;;
75593;SDS011;64176;49.156;7.810;2022-11-15T07:10:18;40.15;;;17.42;;
75593;SDS011;64176;49.156;7.810;2022-11-15T07:13:24;31.85;;;15.85;;
75593;SDS011;64176;49.156;7.810;2022-11-15T07:16:38;51.47;;;20.55;;
75593;SDS011;64176;49.156;7.810;2022-11-15T07:19:40;38.13;;;15.48;;
75593;SDS011;64176;49.156;7.810;2022-11-15T07:22:43;42.15;;;17.42;;
75593;SDS011;64176;49.156;7.810;2022-11-15T07:25:49;74.28;;;22.85;;
75593;SDS011;64176;49.156;7.810;2022-11-15T07:28:52;57.03;;;18.88;;
75593;SDS011;64176;49.156;7.810;2022-11-15T07:31:55;90.05;;;28.55;;
75593;SDS011;64176;49.156;7.810;2022-11-15T07:35:00;43.15;;;21.10;;
75593;SDS011;64176;49.156;7.810;2022-11-15T07:38:02;49.97;;;17.70;;
75593;SDS011;64176;49.156;7.810;2022-11-15T07:41:08;38.60;;;17.02;;
75593;SDS011;64176;49.156;7.810;2022-11-15T07:44:11;53.45;;;20.10;;
75593;SDS011;64176;49.156;7.810;2022-11-15T07:47:16;78.93;;;27.80;;
75593;SDS011;64176;49.156;7.810;2022-11-15T07:50:19;107.30;;;41.13;;
75593;SDS011;64176;49.156;7.810;2022-11-15T07:53:22;80.20;;;32.15;;
75593;SDS011;64176;49.156;7.810;2022-11-15T07:56:25;68.95;;;28.33;;
75593;SDS011;64176;49.156;7.810;2022-11-15T07:59:28;58.72;;;28.55;;
75593;SDS011;64176;49.156;7.810;2022-11-15T08:02:31;51.58;;;23.15;;
75593;SDS011;64176;49.156;7.810;2022-11-15T08:05:34;73.93;;;24.35;;
75593;SDS011;64176;49.156;7.810;2022-11-15T08:08:43;49.05;;;20.20;;
75593;SDS011;64176;49.156;7.810;2022-11-15T08:11:51;40.95;;;21.27;;
75593;SDS011;64176;49.156;7.810;2022-11-15T08:14:56;37.35;;;20.13;;
75593;SDS011;64176;49.156;7.810;2022-11-15T08:18:06;40.00;;;21.20;;
75593;SDS011;64176;49.156;7.810;2022-11-15T08:21:17;41.42;;;24.67;;
75593;SDS011;64176;49.156;7.810;2022-11-15T08:24:21;47.92;;;30.88;;
75593;SDS011;64176;49.156;7.810;2022-11-15T08:27:24;40.47;;;23.10;;
75593;SDS011;64176;49.156;7.810;2022-11-15T08:30:27;33.05;;;19.60;;
75593;SDS011;64176;49.156;7.810;2022-11-15T08:33:33;35.15;;;21.65;;
75593;SDS011;64176;49.156;7.810;2022-11-15T08:36:36;32.50;;;20.27;;
75593;SDS011;64176;49.156;7.810;2022-11-15T08:39:38;26.17;;;16.77;;
75593;SDS011;64176;49.156;7.810;2022-11-15T08:42:41;32.03;;;18.60;;
75593;SDS011;64176;49.156;7.810;2022-11-15T08:45:44;24.90;;;14.93;;
75593;SDS011;64176;49.156;7.810;2022-11-15T08:48:49;19.98;;;14.13;;
75593;SDS011;64176;49.156;7.810;2022-11-15T08:51:52;20.67;;;14.57;;
75593;SDS011;64176;49.156;7.810;2022-11-15T08:54:58;21.02;;;14.20;;
75593;SDS011;64176;49.156;7.810;2022-11-15T08:58:00;21.77;;;14.00;;
75593;SDS011;64176;49.156;7.810;2022-11-15T09:01:03;23.63;;;17.20;;
75593;SDS011;64176;49.156;7.810;2022-11-15T09:04:16;24.25;;;16.45;;
75593;SDS011;64176;49.156;7.810;2022-11-15T09:07:19;25.50;;;17.95;;
75593;SDS011;64176;49.156;7.810;2022-11-15T09:10:22;23.67;;;14.30;;
75593;SDS011;64176;49.156;7.810;2022-11-15T09:13:25;14.80;;;10.60;;
75593;SDS011;64176;49.156;7.810;2022-11-15T09:16:30;14.77;;;9.65;;
75593;SDS011;64176;49.156;7.810;2022-11-15T09:19:33;14.45;;;10.40;;
75593;SDS011;64176;49.156;7.810;2022-11-15T09:22:39;13.15;;;9.15;;
75593;SDS011;64176;49.156;7.810;2022-11-15T09:25:42;19.52;;;12.75;;
75593;SDS011;64176;49.156;7.810;2022-11-15T09:28:45;15.52;;;11.30;;
75593;SDS011;64176;49.156;7.810;2022-11-15T09:31:48;21.65;;;11.13;;
75593;SDS011;64176;49.156;7.810;2022-11-15T09:34:51;17.45;;;11.27;;
75593;SDS011;64176;49.156;7.810;2022-11-15T09:37:53;14.75;;;10.02;;
75593;SDS011;64176;49.156;7.810;2022-11-15T09:41:08;14.98;;;9.98;;
75593;SDS011;64176;49.156;7.810;2022-11-15T09:44:33;16.48;;;10.68;;
75593;SDS011;64176;49.156;7.810;2022-11-15T09:47:42;22.80;;;14.43;;
75593;SDS011;64176;49.156;7.810;2022-11-15T09:51:03;29.25;;;18.25;;
75593;SDS011;64176;49.156;7.810;2022-11-15T09:56:51;26.17;;;19.13;;
75593;SDS011;64176;49.156;7.810;2022-11-15T10:03:19;27.20;;;17.85;;
75593;SDS011;64176;49.156;7.810;2022-11-15T10:05:53;25.55;;;18.02;;
75593;SDS011;64176;49.156;7.810;2022-11-15T10:08:46;20.45;;;14.80;;
75593;SDS011;64176;49.156;7.810;2022-11-15T10:11:36;20.40;;;14.27;;
75593;SDS011;64176;49.156;7.810;2022-11-15T10:14:22;20.75;;;15.98;;
75593;SDS011;64176;49.156;7.810;2022-11-15T10:20:22;17.73;;;13.23;;
75593;SDS011;64176;49.156;7.810;2022-11-15T10:23:10;20.88;;;14.77;;
75593;SDS011;64176;49.156;7.810;2022-11-15T10:25:57;20.48;;;14.77;;
75593;SDS011;64176;49.156;7.810;2022-11-15T10:28:43;15.80;;;12.43;;
75593;SDS011;64176;49.156;7.810;2022-11-15T10:31:30;17.83;;;12.40;;
75593;SDS011;64176;49.156;7.810;2022-11-15T10:37:05;18.58;;;14.73;;
75593;SDS011;64176;49.156;7.810;2022-11-15T10:40:02;21.50;;;15.98;;
75593;SDS011;64176;49.156;7.810;2022-11-15T10:45:52;16.92;;;12.60;;
75593;SDS011;64176;49.156;7.810;2022-11-15T10:48:39;9.43;;;7.18;;
75593;SDS011;64176;49.156;7.810;2022-11-15T10:51:27;6.75;;;5.03;;
75593;SDS011;64176;49.156;7.810;2022-11-15T10:54:14;4.82;;;3.33;;
75593;SDS011;64176;49.156;7.810;2022-11-15T10:57:08;4.97;;;3.05;;
75593;SDS011;64176;49.156;7.810;2022-11-15T11:00:06;3.45;;;2.38;;
75593;SDS011;64176;49.156;7.810;2022-11-15T11:02:58;3.53;;;3.00;;
75593;SDS011;64176;49.156;7.810;2022-11-15T11:05:47;3.92;;;1.90;;
75593;SDS011;64176;49.156;7.810;2022-11-15T11:08:33;2.00;;;1.80;;
75593;SDS011;64176;49.156;7.810;2022-11-15T11:11:17;3.20;;;1.92;;
75593;SDS011;64176;49.156;7.810;2022-11-15T11:14:11;3.00;;;1.50;;
75593;SDS011;64176;49.156;7.810;2022-11-15T11:20:25;3.45;;;1.73;;
75593;SDS011;64176;49.156;7.810;2022-11-15T11:29:32;2.83;;;1.90;;
75593;SDS011;64176;49.156;7.810;2022-11-15T11:35:22;3.03;;;1.75;;
75593;SDS011;64176;49.156;7.810;2022-11-15T11:47:28;3.05;;;1.70;;
75593;SDS011;64176;49.156;7.810;2022-11-15T11:50:21;2.92;;;1.35;;
75593;SDS011;64176;49.156;7.810;2022-11-15T11:56:04;3.08;;;1.77;;
75593;SDS011;64176;49.156;7.810;2022-11-15T12:02:09;3.10;;;1.17;;
75593;SDS011;64176;49.156;7.810;2022-11-15T12:14:40;2.25;;;1.55;;
75593;SDS011;64176;49.156;7.810;2022-11-15T12:17:29;1.60;;;1.50;;
75593;SDS011;64176;49.156;7.810;2022-11-15T12:20:19;1.92;;;1.65;;
75593;SDS011;64176;49.156;7.810;2022-11-15T12:23:13;3.08;;;1.65;;
75593;SDS011;64176;49.156;7.810;2022-11-15T12:26:03;2.50;;;1.50;;
75593;SDS011;64176;49.156;7.810;2022-11-15T12:28:53;3.25;;;1.27;;
75593;SDS011;64176;49.156;7.810;2022-11-15T12:31:45;8.00;;;5.30;;
75593;SDS011;64176;49.156;7.810;2022-11-15T12:34:39;3.92;;;2.08;;
75593;SDS011;64176;49.156;7.810;2022-11-15T12:40:23;2.47;;;2.28;;
75593;SDS011;64176;49.156;7.810;2022-11-15T12:46:04;7.22;;;5.25;;
75593;SDS011;64176;49.156;7.810;2022-11-15T12:59:59;2.33;;;1.83;;
75593;SDS011;64176;49.156;7.810;2022-11-15T13:03:19;2.08;;;1.75;;
75593;SDS011;64176;49.156;7.810;2022-11-15T13:06:33;4.10;;;2.88;;
75593;SDS011;64176;49.156;7.810;2022-11-15T13:21:23;9.70;;;4.97;;
75593;SDS011;64176;49.156;7.810;2022-11-15T13:24:27;10.55;;;7.82;;
75593;SDS011;64176;49.156;7.810;2022-11-15T13:27:17;4.03;;;2.75;;
75593;SDS011;64176;49.156;7.810;2022-11-15T13:30:03;4.07;;;2.17;;
75593;SDS011;64176;49.156;7.810;2022-11-15T13:32:48;2.60;;;1.23;;
75593;SDS011;64176;49.156;7.810;2022-11-15T13:35:33;2.08;;;1.73;;
75593;SDS011;64176;49.156;7.810;2022-11-15T13:41:18;3.80;;;2.35;;
75593;SDS011;64176;49.156;7.810;2022-11-15T13:44:05;2.22;;;2.03;;
75593;SDS011;64176;49.156;7.810;2022-11-15T13:47:04;2.58;;;1.90;;
75593;SDS011;64176;49.156;7.810;2022-11-15T13:49:50;1.83;;;1.27;;
75593;SDS011;64176;49.156;7.810;2022-11-15T13:52:34;1.95;;;1.45;;
75593;SDS011;64176;49.156;7.810;2022-11-15T13:55:21;6.45;;;3.33;;
75593;SDS011;64176;49.156;7.810;2022-11-15T13:58:09;3.00;;;1.85;;
75593;SDS011;64176;49.156;7.810;2022-11-15T14:01:00;2.35;;;1.50;;
75593;SDS011;64176;49.156;7.810;2022-11-15T14:03:57;3.80;;;2.30;;
75593;SDS011;64176;49.156;7.810;2022-11-15T14:06:46;4.43;;;1.73;;
75593;SDS011;64176;49.156;7.810;2022-11-15T14:09:38;3.22;;;2.55;;
75593;SDS011;64176;49.156;7.810;2022-11-15T14:12:32;1.25;;;1.15;;
75593;SDS011;64176;49.156;7.810;2022-11-15T14:15:25;5.97;;;2.38;;
75593;SDS011;64176;49.156;7.810;2022-11-15T14:18:38;4.13;;;2.80;;
75593;SDS011;64176;49.156;7.810;2022-11-15T14:21:27;4.50;;;2.83;;
75593;SDS011;64176;49.156;7.810;2022-11-15T14:24:18;1.90;;;1.67;;
75593;SDS011;64176;49.156;7.810;2022-11-15T14:27:17;3.30;;;2.10;;
75593;SDS011;64176;49.156;7.810;2022-11-15T14:30:03;4.32;;;2.60;;
75593;SDS011;64176;49.156;7.810;2022-11-15T14:32:50;2.67;;;1.90;;
75593;SDS011;64176;49.156;7.810;2022-11-15T14:35:42;10.20;;;6.97;;
75593;SDS011;64176;49.156;7.810;2022-11-15T14:38:26;8.82;;;5.05;;
75593;SDS011;64176;49.156;7.810;2022-11-15T14:41:23;9.05;;;4.47;;
75593;SDS011;64176;49.156;7.810;2022-11-15T14:44:10;4.95;;;3.35;;
75593;SDS011;64176;49.156;7.810;2022-11-15T14:46:54;14.05;;;9.18;;
75593;SDS011;64176;49.156;7.810;2022-11-15T14:49:38;14.57;;;10.70;;
75593;SDS011;64176;49.156;7.810;2022-11-15T14:52:24;9.73;;;6.85;;
75593;SDS011;64176;49.156;7.810;2022-11-15T14:55:20;11.73;;;7.97;;
75593;SDS011;64176;49.156;7.810;2022-11-15T14:58:07;9.73;;;6.00;;
75593;SDS011;64176;49.156;7.810;2022-11-15T15:00:51;10.15;;;6.68;;
75593;SDS011;64176;49.156;7.810;2022-11-15T15:03:35;8.40;;;4.85;;
75593;SDS011;64176;49.156;7.810;2022-11-15T15:06:19;5.45;;;3.33;;
75593;SDS011;64176;49.156;7.810;2022-11-15T15:09:03;5.35;;;3.65;;
75593;SDS011;64176;49.156;7.810;2022-11-15T15:11:48;7.22;;;5.20;;
75593;SDS011;64176;49.156;7.810;2022-11-15T15:14:34;9.25;;;5.75;;
75593;SDS011;64176;49.156;7.810;2022-11-15T15:17:23;14.98;;;9.85;;
75593;SDS011;64176;49.156;7.810;2022-11-15T15:20:07;7.90;;;5.50;;
75593;SDS011;64176;49.156;7.810;2022-11-15T15:22:55;4.60;;;3.72;;
75593;SDS011;64176;49.156;7.810;2022-11-15T15:25:42;6.18;;;2.92;;
75593;SDS011;64176;49.156;7.810;2022-11-15T15:28:27;4.40;;;2.70;;
75593;SDS011;64176;49.156;7.810;2022-11-15T15:31:18;9.57;;;4.63;;
75593;SDS011;64176;49.156;7.810;2022-11-15T15:34:03;3.92;;;3.20;;
75593;SDS011;64176;49.156;7.810;2022-11-15T15:36:48;4.97;;;2.92;;
75593;SDS011;64176;49.156;7.810;2022-11-15T15:39:34;6.03;;;4.60;;
75593;SDS011;64176;49.156;7.810;2022-11-15T15:42:21;8.30;;;5.05;;
75593;SDS011;64176;49.156;7.810;2022-11-15T15:45:06;4.72;;;3.55;;
75593;SDS011;64176;49.156;7.810;2022-11-15T15:47:51;5.95;;;2.88;;
75593;SDS011;64176;49.156;7.810;2022-11-15T15:53:24;9.38;;;7.30;;
75593;SDS011;64176;49.156;7.810;2022-11-15T15:56:11;5.53;;;3.28;;
75593;SDS011;64176;49.156;7.810;2022-11-15T15:58:55;5.50;;;2.83;;
75593;SDS011;64176;49.156;7.810;2022-11-15T16:01:39;9.63;;;6.95;;
75593;SDS011;64176;49.156;7.810;2022-11-15T16:04:28;8.48;;;5.53;;
75593;SDS011;64176;49.156;7.810;2022-11-15T16:07:15;7.88;;;4.32;;
75593;SDS011;64176;49.156;7.810;2022-11-15T16:10:14;8.00;;;6.95;;
75593;SDS011;64176;49.156;7.810;2022-11-15T16:13:08;7.50;;;4.82;;
75593;SDS011;64176;49.156;7.810;2022-11-15T16:15:54;12.52;;;9.23;;
75593;SDS011;64176;49.156;7.810;2022-11-15T16:18:38;9.85;;;7.20;;
75593;SDS011;64176;49.156;7.810;2022-11-15T16:21:22;12.50;;;8.25;;
75593;SDS011;64176;49.156;7.810;2022-11-15T16:24:06;9.15;;;6.45;;
75593;SDS011;64176;49.156;7.810;2022-11-15T16:26:50;8.95;;;6.97;;
75593;SDS011;64176;49.156;7.810;2022-11-15T16:29:35;20.17;;;15.82;;
75593;SDS011;64176;49.156;7.810;2022-11-15T16:32:19;47.22;;;27.85;;
75593;SDS011;64176;49.156;7.810;2022-11-15T16:35:07;30.70;;;18.88;;
75593;SDS011;64176;49.156;7.810;2022-11-15T16:37:54;28.42;;;17.05;;
75593;SDS011;64176;49.156;7.810;2022-11-15T16:40:41;21.92;;;16.70;;
75593;SDS011;64176;49.156;7.810;2022-11-15T16:43:24;21.05;;;15.77;;
75593;SDS011;64176;49.156;7.810;2022-11-15T16:46:12;15.52;;;8.85;;
75593;SDS011;64176;49.156;7.810;2022-11-15T16:49:04;15.82;;;11.18;;
75593;SDS011;64176;49.156;7.810;2022-11-15T16:51:48;11.48;;;7.55;;
75593;SDS011;64176;49.156;7.810;2022-11-15T16:54:33;35.85;;;20.13;;
75593;SDS011;64176;49.156;7.810;2022-11-15T16:57:22;34.80;;;19.95;;
75593;SDS011;64176;49.156;7.810;2022-11-15T17:00:07;19.88;;;10.13;;
75593;SDS011;64176;49.156;7.810;2022-11-15T17:02:54;19.10;;;10.88;;
75593;SDS011;64176;49.156;7.810;2022-11-15T17:05:39;19.23;;;12.80;;
75593;SDS011;64176;49.156;7.810;2022-11-15T17:08:23;34.30;;;16.75;;
75593;SDS011;64176;49.156;7.810;2022-11-15T17:11:07;28.88;;;16.33;;
75593;SDS011;64176;49.156;7.810;2022-11-15T17:13:55;24.75;;;15.20;;
75593;SDS011;64176;49.156;7.810;2022-11-15T17:16:40;29.25;;;18.27;;
75593;SDS011;64176;49.156;7.810;2022-11-15T17:19:25;26.75;;;21.02;;
75593;SDS011;64176;49.156;7.810;2022-11-15T17:22:10;32.95;;;22.60;;
75593;SDS011;64176;49.156;7.810;2022-11-15T17:24:53;34.35;;;20.95;;
75593;SDS011;64176;49.156;7.810;2022-11-15T17:27:37;23.92;;;16.88;;
75593;SDS011;64176;49.156;7.810;2022-11-15T17:30:22;17.95;;;13.27;;
75593;SDS011;64176;49.156;7.810;2022-11-15T17:33:06;14.77;;;12.10;;
75593;SDS011;64176;49.156;7.810;2022-11-15T17:35:54;15.40;;;10.43;;
75593;SDS011;64176;49.156;7.810;2022-11-15T17:41:29;18.45;;;11.25;;
75593;SDS011;64176;49.156;7.810;2022-11-15T17:44:13;22.08;;;13.45;;
75593;SDS011;64176;49.156;7.810;2022-11-15T17:46:58;18.48;;;11.85;;
75593;SDS011;64176;49.156;7.810;2022-11-15T17:49:41;14.52;;;11.38;;
75593;SDS011;64176;49.156;7.810;2022-11-15T17:52:25;14.13;;;8.35;;
75593;SDS011;64176;49.156;7.810;2022-11-15T17:55:09;15.48;;;10.50;;
75593;SDS011;64176;49.156;7.810;2022-11-15T17:57:53;16.17;;;12.30;;
75593;SDS011;64176;49.156;7.810;2022-11-15T18:00:37;20.08;;;14.15;;
75593;SDS011;64176;49.156;7.810;2022-11-15T18:03:26;26.25;;;16.52;;
75593;SDS011;64176;49.156;7.810;2022-11-15T18:06:16;23.52;;;17.55;;
75593;SDS011;64176;49.156;7.810;2022-11-15T18:09:01;22.02;;;14.93;;
75593;SDS011;64176;49.156;7.810;2022-11-15T18:11:51;18.50;;;12.85;;
75593;SDS011;64176;49.156;7.810;2022-11-15T18:14:37;44.08;;;29.83;;
75593;SDS011;64176;49.156;7.810;2022-11-15T18:17:20;138.50;;;90.45;;
75593;SDS011;64176;49.156;7.810;2022-11-15T18:20:07;12.93;;;9.52;;
75593;SDS011;64176;49.156;7.810;2022-11-15T18:22:52;9.60;;;7.65;;
75593;SDS011;64176;49.156;7.810;2022-11-15T18:25:37;14.77;;;7.50;;
75593;SDS011;64176;49.156;7.810;2022-11-15T18:28:21;9.77;;;7.93;;
75593;SDS011;64176;49.156;7.810;2022-11-15T18:31:18;11.70;;;8.55;;
75593;SDS011;64176;49.156;7.810;2022-11-15T18:34:04;21.33;;;12.63;;
75593;SDS011;64176;49.156;7.810;2022-11-15T18:36:50;34.00;;;20.48;;
75593;SDS011;64176;49.156;7.810;2022-11-15T18:39:35;36.95;;;23.05;;
75593;SDS011;64176;49.156;7.810;2022-11-15T18:42:20;52.75;;;32.70;;
75593;SDS011;64176;49.156;7.810;2022-11-15T18:45:07;64.30;;;37.42;;
75593;SDS011;64176;49.156;7.810;2022-11-15T18:47:52;39.75;;;23.95;;
75593;SDS011;64176;49.156;7.810;2022-11-15T18:50:36;21.75;;;15.13;;
75593;SDS011;64176;49.156;7.810;2022-11-15T18:53:20;20.95;;;14.55;;
75593;SDS011;64176;49.156;7.810;2022-11-15T18:56:07;22.95;;;14.90;;
75593;SDS011;64176;49.156;7.810;2022-11-15T18:58:54;21.58;;;16.95;;
75593;SDS011;64176;49.156;7.810;2022-11-15T19:01:43;21.48;;;16.38;;
75593;SDS011;64176;49.156;7.810;2022-11-15T19:04:31;28.80;;;18.67;;
75593;SDS011;64176;49.156;7.810;2022-11-15T19:07:15;30.48;;;20.38;;
75593;SDS011;64176;49.156;7.810;2022-11-15T19:09:59;31.00;;;21.83;;
75593;SDS011;64176;49.156;7.810;2022-11-15T19:12:43;26.08;;;20.70;;
75593;SDS011;64176;49.156;7.810;2022-11-15T19:15:29;25.73;;;20.10;;
75593;SDS011;64176;49.156;7.810;2022-11-15T19:18:15;21.30;;;17.85;;
75593;SDS011;64176;49.156;7.810;2022-11-15T19:21:03;22.15;;;16.15;;
75593;SDS011;64176;49.156;7.810;2022-11-15T19:23:49;20.77;;;16.42;;
75593;SDS011;64176;49.156;7.810;2022-11-15T19:26:33;25.52;;;17.08;;